Latest Coastal Weather Observations for King Island Airport

IDV60701

Issued at 3:42 am EST Thursday 27 April 2017 (issued every 10 minutes, with the page automatically refreshed every 10 minutes)

About coastal observations | Map of coastal stations | Coastal observations for VIC | Marine services | Other Formats
Station Details ID: 098017 Name: KING ISLAND AIRPORT Lat: -39.88 Lon: 143.88 Height: 37.0 m
Data from the previous 72 hours. | See also: Recent months at King Island Airport
Date/Time
EST
Temp
°C
Wind Pressure Rain since
9am
mm
Weather Cloud Vis
km
Sea
Height
m
Swell
Dir  Spd
kts
Gust
kts
hPa Trend Height
m
Period
s
Dir
27/03:30am 8.0 SSE 6 7 1020.7 - 0.8 - Partly cloudy 10 - - - -
27/03:00am 6.3 SSE 2 5 1020.9 - 0.8 - Mostly cloudy 10 - - - -
27/02:30am 6.7 SSE 5 5 1021.0 - 0.8 - - 10 - - - -
27/02:00am 8.0 S 5 6 1021.0 - 0.8 - Partly cloudy 10 - - - -
27/01:30am 8.2 SSE 5 7 1020.8 - 0.8 - Partly cloudy 10 - - - -
27/01:00am 9.1 S 8 13 1020.8 - 0.8 - Partly cloudy 10 - - - -
27/12:30am 10.1 SSW 12 18 1020.6 - 0.8 - Partly cloudy 10 - - - -
27/12:00am 9.5 S 8 14 1020.6 - 0.8 - - 10 - - - -
 
Date/Time
EST
Temp
°C
Wind Pressure Rain since
9am
mm
Weather Cloud Vis
km
Sea
Height
m
Swell
Dir  Spd
kts
Gust
kts
hPa Trend Height
m
Period
s
Dir
26/11:30pm 9.8 S 9 14 1020.4 - 0.8 - Partly cloudy 10 - - - -
26/11:00pm 9.9 SSW 13 18 1020.4 - 0.8 - Partly cloudy 10 - - - -
26/10:30pm 9.4 S 7 11 1020.3 - 0.8 - Partly cloudy 10 - - - -
26/10:00pm 9.3 S 10 15 1019.9 - 0.8 - Partly cloudy 10 - - - -
26/09:30pm 9.2 S 6 10 1019.9 - 0.8 - Partly cloudy 10 - - - -
26/09:00pm 10.1 S 10 16 1019.6 - 0.8 - Partly cloudy 10 - - - -
26/08:30pm 10.3 SSW 15 20 1019.3 - 0.8 - Partly cloudy 10 - - - -
26/08:00pm 10.3 SSW 15 18 1018.8 - 0.8 - Partly cloudy 10 - - - -
26/07:30pm 10.3 SSW 15 19 1018.5 - 0.8 - Partly cloudy 10 - - - -
26/07:00pm 10.2 SSW 16 20 1018.2 - 0.8 - Partly cloudy 10 - - - -
26/06:35pm 10.7 SSW 15 25 1017.8 - 0.8 - Partly cloudy 10 - - - -
26/06:30pm 10.6 SSW 15 22 1017.7 - 0.8 - Partly cloudy 10 - - - -
26/06:00pm 10.5 SSW 17 22 1017.2 - 0.8 - Cloudy 10 - - - -
26/05:30pm 10.5 SSW 16 23 1016.8 - 0.8 - Partly cloudy 10 - - - -
26/05:00pm 10.7 SSW 18 24 1016.5 - 0.8 - Partly cloudy 10 - - - -
26/04:30pm 10.1 SW 13 20 1016.0 - 0.8 - Partly cloudy 10 - - - -
26/04:03pm 10.9 SSW 21 31 1015.9 - 0.8 - Partly cloudy 10 - - - -
26/04:00pm 10.7 SSW 22 29 1015.8 - 0.8 - Partly cloudy 10 - - - -
26/03:45pm 10.8 S 17 27 1015.5 - 0.8 - Partly cloudy 10 - - - -
26/03:30pm 12.0 SSW 21 28 1015.2 - 0.8 - Partly cloudy 10 - - - -
26/03:22pm 12.1 SSW 18 28 1015.1 - 0.8 - Partly cloudy 10 - - - -
26/03:00pm 12.0 SSW 20 26 1014.7 - 0.8 - Partly cloudy 10 - - - -
26/02:30pm 11.5 SSW 21 28 1014.5 - 0.8 - Partly cloudy 10 - - - -
26/02:01pm 11.4 SW 20 30 1014.3 - 0.8 - Partly cloudy 10 - - - -
26/02:00pm 11.4 SW 20 29 1014.2 - 0.8 - Partly cloudy 10 - - - -
26/01:32pm 10.3 SSW 24 34 1014.3 - 0.8 - Partly cloudy 10 - - - -
26/01:30pm 10.5 SSW 25 34 1014.3 - 0.8 - Partly cloudy 10 - - - -
26/01:20pm 10.1 SSW 15 31 1014.2 - 0.8 - Partly cloudy 10 - - - -
26/01:00pm 8.9 SSW 17 26 1014.5 - 0.4 - Partly cloudy 10 - - - -
26/12:53pm 10.1 S 15 26 1014.3 - 0.4 - Partly cloudy 10 - - - -
26/12:45pm 9.4 SSW 16 21 1014.0 - 0.4 - Partly cloudy 10 - - - -
26/12:30pm 8.2 SW 23 33 1014.1 - 0.4 - Partly cloudy 10 - - - -
26/12:01pm 11.0 SSW 19 29 1013.7 - 0.0 - Partly cloudy 10 - - - -
26/12:00pm 11.1 SSW 20 29 1013.7 - 0.0 - Cloudy 10 - - - -
26/11:52am 11.8 SSW 20 30 1013.7 - 0.0 - Partly cloudy 10 - - - -
26/11:30am 12.0 SSW 20 29 1013.6 - 0.0 - Partly cloudy 10 - - - -
26/11:24am 12.7 SSW 20 30 1013.5 - 0.0 - Partly cloudy 10 - - - -
26/11:00am 11.8 SSW 25 31 1013.1 - 0.0 - Partly cloudy 10 - - - -
26/10:30am 11.4 SSW 20 28 1012.8 - 0.0 - Partly cloudy 10 - - - -
26/10:00am 11.1 SW 19 29 1012.5 - 0.0 - Partly cloudy 10 - - - -
26/09:30am 11.4 SSW 22 29 1012.4 - 0.0 - Partly cloudy 10 - - - -
26/09:01am 10.6 SSW 23 33 1012.0 - 0.0 - Partly cloudy 10 - - - -
26/09:00am 10.5 SSW 24 33 1012.0 - 11.0 - Mostly clear 10 - - - -
26/08:30am 10.2 SSW 23 34 1011.3 - 11.0 - Partly cloudy 10 - - - -
26/08:00am 10.9 SSW 23 33 1010.7 - 11.0 - Partly cloudy 10 - - - -
26/07:55am 11.2 SSW 22 32 1010.5 - 11.0 - Partly cloudy 10 - - - -
26/07:30am 10.7 SSW 22 31 1009.8 - 10.8 - Partly cloudy 10 - - - -
26/07:10am 10.7 SSW 24 34 1009.3 - 10.8 - Partly cloudy 10 - - - -
26/07:00am 10.5 SSW 25 33 1009.0 - 10.8 - Partly cloudy 10 - - - -
26/06:31am 11.0 SSW 21 31 1008.3 - 10.8 - Partly cloudy 10 - - - -
26/06:30am 10.9 SSW 20 28 1008.3 - 10.8 - Partly cloudy 10 - - - -
26/06:00am 11.0 SSW 23 31 1007.7 - 10.8 - Cloudy 10 - - - -
26/05:32am 11.2 SSW 19 29 1006.8 - 10.8 - Partly cloudy 10 - - - -
26/05:30am 11.0 SSW 19 27 1006.8 - 10.8 - Partly cloudy 10 - - - -
26/05:08am 11.1 SSW 21 31 1006.4 - 10.8 - Partly cloudy 10 - - - -
26/05:00am 11.1 SSW 26 34 1006.1 - 10.8 - Partly cloudy 10 - - - -
26/04:40am 11.1 SSW 21 31 1005.8 - 10.8 - Partly cloudy 10 - - - -
26/04:30am 11.3 SSW 22 28 1005.4 - 10.8 - Partly cloudy 10 - - - -
26/04:00am 11.1 SSW 19 28 1005.0 - 10.8 - Partly cloudy 10 - - - -
26/03:57am 11.0 SSW 17 28 1004.9 - 10.8 - Partly cloudy 10 - - - -
26/03:30am 10.4 SSW 24 32 1004.3 - 10.8 - Partly cloudy 10 - - - -
26/03:00am 10.8 SSW 17 24 1003.9 - 10.8 Showers Cloudy 10 - - - -
26/02:30am 10.2 SSW 16 22 1003.7 - 10.8 - Partly cloudy 10 - - - -
26/02:00am 9.9 SSW 17 23 1003.8 - 10.8 - Partly cloudy 10 - - - -
26/01:45am 9.8 SW 18 23 1004.1 - 10.6 - Partly cloudy 9 - - - -
26/01:30am 9.1 SW 24 35 1004.0 - 9.8 - Partly cloudy 5 - - - -
26/01:15am 9.6 SW 23 40 1003.6 - 8.4 - Partly cloudy 5 - - - -
26/01:14am 10.2 SW 22 40 1003.6 - 8.2 - Partly cloudy 6 - - - -
26/01:00am 11.0 SSW 19 25 1003.1 - 7.2 - Partly cloudy 10 - - - -
26/12:32am 10.3 SSW 16 23 1002.9 - 7.0 - Partly cloudy 10 - - - -
26/12:30am 10.3 SSW 17 23 1003.0 - 6.8 - Partly cloudy 9 - - - -
26/12:19am 10.1 SW 21 32 1003.0 - 6.4 - Partly cloudy 5 - - - -
26/12:17am 10.3 SW 20 32 1003.0 - 6.4 - Partly cloudy 6 - - - -
26/12:06am 11.0 SW 15 26 1002.8 - 5.6 - Partly cloudy 5 - - - -
26/12:02am 11.1 SSW 16 20 1002.7 - 5.4 - Partly cloudy 5 - - - -
26/12:00am 11.2 SSW 16 25 1002.7 - 5.0 Showers Cloudy 7 - - - -
 
Date/Time
EST
Temp
°C
Wind Pressure Rain since
9am
mm
Weather Cloud Vis
km
Sea
Height
m
Swell
Dir  Spd
kts
Gust
kts
hPa Trend Height
m
Period
s
Dir
25/11:30pm 12.3 SSW 19 25 1002.2 - 4.6 - Partly cloudy 10 - - - -
25/11:00pm 12.8 SSW 17 22 1002.1 - 4.6 - Partly cloudy 10 - - - -
25/10:30pm 12.9 SW 18 23 1002.1 - 4.6 - Partly cloudy 10 - - - -
25/10:00pm 13.5 WNW 16 20 1001.8 - 4.6 - Partly cloudy 10 - - - -
25/09:52pm 13.3 WNW 13 19 1002.1 - 4.4 - Partly cloudy 10 - - - -
25/09:34pm 13.4 WNW 18 27 1002.4 - 3.8 - Partly cloudy 5 - - - -
25/09:30pm 13.9 NW 17 21 1002.3 - 3.2 - Partly cloudy 9 - - - -
25/09:26pm 14.3 NW 17 21 1002.2 - 3.2 - Partly cloudy 10 - - - -
25/09:00pm 13.8 NW 15 18 1002.5 - 3.0 Showers Cloudy 10 - - - -
25/08:45pm 13.5 NW 15 18 1002.9 - 3.0 - Partly cloudy 10 - - - -
25/08:30pm 13.3 WNW 16 20 1003.0 - 3.0 - Partly cloudy 10 - - - -
25/08:00pm 13.2 W 16 23 1003.4 - 2.4 - Partly cloudy 6 - - - -
25/07:30pm 13.1 WNW 17 23 1003.2 - 1.6 - Partly cloudy 8 - - - -
25/07:00pm 14.3 WNW 18 29 1003.2 - 1.2 - Partly cloudy 10 - - - -
25/06:56pm 14.0 WNW 15 25 1003.1 - 1.2 - Partly cloudy 10 - - - -
25/06:30pm 13.7 NW 18 25 1003.4 - 0.2 - Partly cloudy 8 - - - -
25/06:00pm 15.0 WNW 14 17 1003.6 - 0.0 - Cloudy 10 - - - -
25/05:30pm 14.7 WNW 15 19 1003.9 - 0.0 - Partly cloudy 10 - - - -
25/05:00pm 15.2 WNW 14 18 1004.3 - 0.0 - Partly cloudy 10 - - - -
25/04:30pm 15.3 WNW 15 20 1004.5 - 0.0 - Partly cloudy 10 - - - -
25/04:00pm 16.3 WNW 12 18 1004.4 - 0.0 - Partly cloudy 10 - - - -
25/03:30pm 16.4 WNW 14 19 1004.6 - 0.0 - Partly cloudy 10 - - - -
25/03:00pm 16.0 WNW 15 19 1004.9 - 0.0 - Partly cloudy 10 - - - -
25/02:30pm 16.3 W 14 19 1005.3 - 0.0 - Partly cloudy 10 - - - -
25/02:00pm 16.6 W 14 18 1005.6 - 0.0 - Partly cloudy 10 - - - -
25/01:30pm 16.0 WSW 13 19 1005.9 - 0.0 - Partly cloudy 10 - - - -
25/01:00pm 15.8 WSW 14 20 1006.3 - 0.0 - Partly cloudy 10 - - - -
25/12:30pm 16.3 WSW 15 20 1006.6 - 0.0 - Partly cloudy 10 - - - -
25/12:00pm 16.3 W 14 18 1007.0 - 0.0 - Cloudy 10 - - - -
25/11:30am 16.5 W 12 17 1007.4 - 0.0 - Partly cloudy 10 - - - -
25/11:00am 15.7 WSW 11 16 1007.8 - 0.0 - Partly cloudy 10 - - - -
25/10:30am 15.7 WSW 10 15 1008.0 - 0.0 - Partly cloudy 10 - - - -
25/10:00am 15.7 WSW 11 15 1008.2 - 0.0 - Partly cloudy 10 - - - -
25/09:30am 14.9 SW 9 12 1007.9 - 0.0 - - 10 - - - -
25/09:00am 15.3 SW 9 11 1008.1 - 4.2 - Cloudy 10 - - - -
25/08:30am 14.5 SSW 7 10 1008.1 - 4.2 - - 10 - - - -
25/08:00am 13.3 SSW 5 6 1007.9 - 4.2 - - 10 - - - -
25/07:30am 13.4 SSW 5 6 1007.7 - 4.2 - Partly cloudy 10 - - - -
25/07:00am 13.4 SSW 5 7 1007.5 - 4.2 - Partly cloudy 10 - - - -
25/06:30am 13.7 SSW 7 8 1007.7 - 4.2 - Partly cloudy 10 - - - -
25/06:00am 13.6 SSW 6 7 1007.8 - 4.2 Showers Cloudy 10 - - - -
25/05:30am 13.8 S 5 7 1007.8 - 4.2 - Partly cloudy 10 - - - -
25/05:00am 13.9 SSW 6 8 1008.0 - 4.0 - Partly cloudy 10 - - - -
25/04:30am 14.1 SSW 3 4 1007.9 - 4.0 - Partly cloudy 9 - - - -
25/04:25am 14.1 SSW 4 4 1007.9 - 4.0 - Partly cloudy 9 - - - -
25/04:17am 14.1 SSW 4 5 1007.8 - 4.0 - Partly cloudy 10 - - - -
25/04:12am 14.2 SSW 5 5 1007.9 - 4.0 - Partly cloudy 8 - - - -
25/04:00am 14.1 S 4 5 1008.0 - 3.8 - Partly cloudy 5 - - - -
25/03:59am 14.1 S 4 5 1008.0 - 3.8 - Partly cloudy 5 - - - -
25/03:30am 14.0 SSE 4 4 1008.3 - 3.6 - Cloudy 10 - - - -
25/03:00am 14.2 SSW 5 5 1008.7 - 3.6 Drizzle Cloudy 10 - - - -
25/02:50am 14.2 SSW 4 5 1008.9 - 3.6 - Partly cloudy 10 - - - -
25/02:30am 14.2 SSW 5 5 1009.2 - 3.6 - Partly cloudy 4 - - - -
25/02:04am 14.2 SSW 5 6 1009.5 - 3.2 - Partly cloudy 5 - - - -
25/02:00am 14.2 S 5 6 1009.6 - 3.2 - Partly cloudy 7 - - - -
25/01:30am 14.3 S 4 6 1010.0 - 3.2 - Partly cloudy 10 - - - -
25/01:00am 14.2 SSW 5 7 1010.2 - 3.2 - Partly cloudy 10 - - - -
25/12:57am 14.2 SSW 4 7 1010.2 - 3.2 - Partly cloudy 10 - - - -
25/12:30am 14.1 ESE 7 8 1010.1 - 3.0 - Partly cloudy 10 - - - -
25/12:00am 14.0 ESE 5 7 1010.5 - 3.0 Showers Cloudy 10 - - - -
 
Date/Time
EST
Temp
°C
Wind Pressure Rain since
9am
mm
Weather Cloud Vis
km
Sea
Height
m
Swell
Dir  Spd
kts
Gust
kts
hPa Trend Height
m
Period
s
Dir
24/11:30pm 13.9 E 8 10 1010.9 - 3.0 - Cloudy 10 - - - -
24/11:00pm 13.7 E 9 10 1011.4 - 2.8 - Cloudy 10 - - - -
24/10:30pm 13.7 E 8 11 1012.2 - 2.8 - Partly cloudy 10 - - - -
24/10:00pm 13.6 ESE 7 10 1012.6 - 2.6 - Cloudy 10 - - - -
24/09:30pm 13.7 E 5 6 1013.4 - 1.8 - Partly cloudy 8 - - - -
24/09:14pm 13.9 SSE 5 6 1013.8 - 1.4 - Partly cloudy 8 - - - -
24/09:00pm 14.0 SSE 4 5 1014.0 - 1.0 Showers Cloudy 5 - - - -
24/08:57pm 14.1 SSE 3 5 1014.0 - 0.8 - Partly cloudy 5 - - - -
24/08:30pm 14.1 CALM 0 0 1014.3 - 0.0 - Partly cloudy 10 - - - -
24/08:00pm 14.2 SE 1 3 1014.6 - 0.0 - Partly cloudy 10 - - - -
24/07:30pm 14.4 SSE 4 5 1015.1 - 0.0 - Partly cloudy 10 - - - -
24/07:00pm 14.6 SW 5 6 1014.9 - 0.0 - Partly cloudy 10 - - - -
24/06:30pm 14.8 SSW 4 4 1014.6 - 0.0 - Partly cloudy 10 - - - -
24/06:00pm 14.9 SW 4 5 1014.7 - 0.0 - Cloudy 10 - - - -
24/05:30pm 15.2 S 4 5 1014.4 - 0.0 - - 10 - - - -
24/05:00pm 15.7 SSW 5 6 1014.6 - 0.0 - Partly cloudy 10 - - - -
24/04:30pm 15.9 SW 4 5 1014.9 - 0.0 - Partly cloudy 10 - - - -
24/04:00pm 16.0 WSW 5 6 1015.5 - 0.0 - Partly cloudy 10 - - - -
24/03:30pm 16.4 W 5 6 1015.8 - 0.0 - Partly cloudy 10 - - - -
24/03:00pm 16.5 CALM 0 1 1016.1 - 0.0 - Cloudy 10 - - - -
24/02:30pm 16.3 SW 5 6 1016.2 - 0.0 - Partly cloudy 10 - - - -
24/02:00pm 16.4 WSW 5 6 1016.5 - 0.0 - Partly cloudy 10 - - - -
24/01:30pm 16.7 SW 7 8 1016.8 - 0.0 - Partly cloudy 10 - - - -
24/01:00pm 16.3 W 5 6 1017.4 - 0.0 - Cloudy 10 - - - -
24/12:30pm 16.4 WSW 5 6 1017.7 - 0.0 - Cloudy 10 - - - -
24/12:00pm 17.1 W 6 8 1018.3 - 0.0 - Cloudy 10 - - - -
24/11:30am 17.4 WSW 4 6 1018.8 - 0.0 - Cloudy 10 - - - -
24/11:00am 16.7 W 4 6 1019.0 - 0.0 - Cloudy 10 - - - -
24/10:30am 16.7 WSW 5 7 1019.5 - 0.0 - Partly cloudy 10 - - - -
24/10:12am 16.4 SW 5 5 1019.6 - 0.0 - Cloudy 10 - - - -
24/10:00am 16.5 WNW 2 5 1019.7 - 0.0 - Partly cloudy 10 - - - -
24/09:30am 16.2 W 3 6 1019.9 - 0.0 - Cloudy 10 - - - -
24/09:09am 15.4 ENE 3 7 1020.3 - 0.0 - Partly cloudy 10 - - - -
24/09:00am 15.3 SSE 3 6 1020.0 - 0.0 - Cloudy 10 - - - -
24/08:30am 14.8 WSW 2 5 1020.2 - 0.0 - Cloudy 10 - - - -
24/08:00am 12.8 CALM 0 0 1020.1 - 0.0 - Cloudy 10 - - - -
24/07:30am 11.0 CALM 0 2 1020.3 - 0.0 - Cloudy 8 - - - -
24/07:05am 12.5 CALM 0 0 1020.2 - 0.0 - Partly cloudy 10 - - - -
24/07:00am 12.4 CALM 0 0 1020.2 - 0.0 - Partly cloudy 10 - - - -
24/06:30am 11.7 CALM 0 0 1020.7 - 0.0 - Partly cloudy 0.6 - - - -
24/06:28am 11.6 CALM 0 0 1020.7 - 0.0 - Partly cloudy 0.6 - - - -
24/06:18am 11.9 CALM 0 0 1020.6 - 0.0 - Partly cloudy 3 - - - -
24/06:00am 12.9 SSW 4 5 1020.5 - 0.0 - Mostly cloudy 10 - - - -
24/05:30am 13.6 SW 4 5 1020.6 - 0.0 - Partly cloudy 10 - - - -
24/05:00am 14.0 W 5 5 1020.9 - 0.0 - Partly cloudy 10 - - - -
24/04:49am 14.0 W 4 5 1021.0 - 0.0 - Partly cloudy 10 - - - -
24/04:30am 13.8 W 5 5 1021.1 - 0.0 - Partly cloudy 10 - - - -
24/04:00am 13.3 N 1 3 1021.2 - 0.0 - Cloudy 10 - - - -

Other Formats:

Comma delimited format used in spreadsheet applications
http://www.bom.gov.au/fwo/IDV60701/IDV60701.94850.axf

JavaScript Object Notation format (JSON) in row-major order
http://www.bom.gov.au/fwo/IDV60701/IDV60701.94850.json